Minneapolis, Minnesota
Traffic Map
Current Weather Conditions
Minneapolis, Minnesota
Broken Clouds
Broken Clouds
26°
Feels Like: 27°
Wind Chill: 26° Ceiling: 10000
Heat Index: 27° Visibility: 10mi
Dew Point: 17° Wind: 6mph
Humidity: 56% Direction: 150° (SSE)
Pressure: 30in Gusts: 0mph
Raw Report DataKMSP 301953Z 15005KT 10SM FEW060 BKN100 26/17 A3000 RMK AO2 SLP156 T02610167
Traffic Incident Summary
Active as of:
Severity:
Category:
InformationThere was an issue retrieving the traffic information for this location. Please try a different location or try again shortly.
Advertisements
Track Severe Weather on mobile